Tunica, Mississippi
Current Conditions -  °F | °C
As of 5:15 PM on Thursday 20 Nov 2014 (Local Time) from KUTA Reporting Station
Drizzle Drizzle  
Wind Chill: 48°   Ceiling: Unl
Heat Index: 48°   Visibility: 3mi
Dew Point: 36°   Wind: 0mph
Humidity: 62%   Direction: NA
Pressure: 30.2"   Gusts: NA
Location:  34.68°N, 90.38°W
Report Text: KUTA 202315Z AUTO 00000KT 3SM DZ CLR 09/02 A3020 RMK AO2
Loading
Personal Weather Stations






























Interactive Weather Map New forecast layout! Learn more

10-Day Weather Forecast

Advertisements
Track Severe Weather on mobile